Accedi per prenotare

Caricamento...

Situazione Metar e Taf aeroporto Pisa - Effemeridi Aeroporto Lucca

[Source: ADDS]
METAR
LIRP 152045Z 09013KT CAVOK 07/M01 Q1016 NOSIG =
LIRP 151700Z 1518/1618 11010KT CAVOK
TAF
LIRP 151700Z 1518/1618 11010KT CAVOK =
SR / SS: 06:48 / 16:10 UTC (Effemeridi LIQL 2021-01-15)